createdAt,value
2018-04-01T00:02:24.903Z,40.67
2018-04-01T00:04:52.078Z,41.92
2018-04-01T00:07:19.295Z,39.30
2018-04-01T00:09:46.390Z,39.40
2018-04-01T00:12:13.498Z,37.97
2018-04-01T00:14:40.642Z,36.20
2018-04-01T00:17:07.728Z,33.90
2018-04-01T00:19:35.717Z,33.25
2018-04-01T00:22:02.855Z,35.17
2018-04-01T00:24:29.994Z,33.03
2018-04-01T00:26:57.162Z,32.83
2018-04-01T00:29:24.281Z,33.95
2018-04-01T00:31:51.420Z,32.00
2018-04-01T00:34:18.589Z,36.13
2018-04-01T00:36:45.764Z,33.50
2018-04-01T00:39:12.892Z,32.88
2018-04-01T00:41:40.139Z,33.72
2018-04-01T00:44:07.239Z,33.85
2018-04-01T00:46:35.080Z,37.13
2018-04-01T00:49:02.219Z,35.08
2018-04-01T00:51:29.379Z,34.85
2018-04-01T00:53:56.531Z,35.35
2018-04-01T00:56:24.362Z,38.45
2018-04-01T00:58:51.490Z,37.38
2018-04-01T01:01:18.695Z,36.92
2018-04-01T01:03:45.879Z,34.83
2018-04-01T01:06:13.725Z,36.63
2018-04-01T01:08:40.871Z,38.50
2018-04-01T01:11:08.014Z,35.03
2018-04-01T01:13:35.162Z,36.40
2018-04-01T01:16:02.347Z,38.05
2018-04-01T01:18:29.763Z,39.33
2018-04-01T01:20:56.875Z,41.65
2018-04-01T01:23:24.058Z,41.33
2018-04-01T01:25:51.180Z,37.58
2018-04-01T01:28:18.376Z,39.20
2018-04-01T01:30:45.490Z,40.72
2018-04-01T01:33:12.615Z,39.17
2018-04-01T01:35:39.765Z,39.85
2018-04-01T01:38:06.853Z,40.28
2018-04-01T01:40:33.959Z,41.03
2018-04-01T01:43:04.146Z,38.17
2018-04-01T01:45:32.507Z,38.50
2018-04-01T01:47:59.595Z,38.65
2018-04-01T01:50:27.517Z,37.70
2018-04-01T01:52:54.690Z,39.85
2018-04-01T01:55:21.861Z,38.72
2018-04-01T01:57:49.028Z,39.60
2018-04-01T02:00:16.509Z,35.35
2018-04-01T02:02:43.589Z,39.05
2018-04-01T02:05:10.742Z,37.65
2018-04-01T02:07:38.117Z,36.08
2018-04-01T02:10:06.043Z,34.88
2018-04-01T02:12:33.164Z,38.00
2018-04-01T02:15:01.063Z,36.35
2018-04-01T02:17:28.203Z,37.88
2018-04-01T02:19:55.356Z,37.00
2018-04-01T02:22:22.452Z,34.33
2018-04-01T02:24:49.678Z,36.42
2018-04-01T02:27:16.779Z,38.40
2018-04-01T02:29:44.707Z,35.92
2018-04-01T02:32:11.840Z,34.85
2018-04-01T02:34:38.979Z,35.75
2018-04-01T02:37:06.161Z,37.70
2018-04-01T02:39:33.297Z,39.17
2018-04-01T02:42:00.398Z,37.80
2018-04-01T02:44:28.291Z,40.25
2018-04-01T02:46:55.435Z,35.85
2018-04-01T02:49:22.833Z,39.58
2018-04-01T02:51:49.973Z,39.10
2018-04-01T02:54:17.914Z,35.85
2018-04-01T02:56:45.046Z,38.97
2018-04-01T02:59:12.913Z,37.00
2018-04-01T03:01:40.772Z,37.13
2018-04-01T03:04:07.856Z,39.70
2018-04-01T03:06:34.949Z,39.80
2018-04-01T03:09:02.060Z,37.25
2018-04-01T03:11:29.129Z,38.63
2018-04-01T03:13:56.299Z,38.08
2018-04-01T03:16:23.408Z,38.35
2018-04-01T03:18:50.515Z,40.80
2018-04-01T03:21:18.411Z,38.38
2018-04-01T03:23:45.551Z,38.22
2018-04-01T03:26:12.667Z,38.83
2018-04-01T03:28:39.763Z,39.22
2018-04-01T03:31:06.911Z,38.25
2018-04-01T03:33:34.029Z,38.45
2018-04-01T03:36:01.923Z,37.50
2018-04-01T03:38:29.049Z,39.63
2018-04-01T03:40:57.965Z,40.03
2018-04-01T03:43:25.116Z,39.33
2018-04-01T03:45:52.302Z,37.95
2018-04-01T03:48:19.383Z,37.95
2018-04-01T03:50:46.497Z,42.80
2018-04-01T03:53:13.629Z,39.40
2018-04-01T03:55:40.775Z,43.25
2018-04-01T03:58:07.905Z,38.97
2018-04-01T04:00:35.800Z,38.58
2018-04-01T04:03:02.961Z,38.72
2018-04-01T04:05:30.112Z,39.83
2018-04-01T04:07:57.252Z,40.20
2018-04-01T04:10:24.381Z,39.13
2018-04-01T04:12:51.474Z,40.42
2018-04-01T04:15:18.594Z,37.78
2018-04-01T04:17:45.735Z,37.70
2018-04-01T04:20:12.954Z,38.42
2018-04-01T04:22:40.047Z,37.63
2018-04-01T04:25:07.286Z,37.53
2018-04-01T04:27:34.441Z,40.42
2018-04-01T04:30:01.607Z,37.33
2018-04-01T04:32:28.717Z,37.40
2018-04-01T04:34:55.856Z,35.08
2018-04-01T04:37:23.037Z,37.60
2018-04-01T04:39:51.040Z,36.08
2018-04-01T04:42:18.196Z,36.10
2018-04-01T04:44:45.389Z,34.35
2018-04-01T04:47:13.273Z,35.17
2018-04-01T04:49:40.426Z,36.78
2018-04-01T04:52:07.560Z,34.60
2018-04-01T04:54:34.700Z,34.55
2018-04-01T04:57:01.822Z,33.33
2018-04-01T04:59:29.838Z,36.08
2018-04-01T05:01:57.734Z,36.90
2018-04-01T05:04:24.934Z,33.47
2018-04-01T05:06:52.049Z,36.60
2018-04-01T05:09:19.167Z,36.80
2018-04-01T05:11:47.029Z,35.25
2018-04-01T05:14:14.943Z,36.70
2018-04-01T05:16:42.097Z,36.95
2018-04-01T05:19:09.280Z,34.50
2018-04-01T05:21:36.406Z,37.83
2018-04-01T05:24:03.550Z,37.67
2018-04-01T05:26:30.686Z,36.97
2018-04-01T05:28:57.801Z,37.65
2018-04-01T05:31:24.953Z,35.38
2018-04-01T05:33:53.254Z,35.78
2018-04-01T05:36:20.425Z,33.53
2018-04-01T05:38:47.611Z,38.63
2018-04-01T05:41:14.727Z,37.83
2018-04-01T05:43:41.872Z,37.22
2018-04-01T05:46:08.995Z,36.75
2018-04-01T05:48:36.350Z,34.78
2018-04-01T05:51:03.485Z,36.35
2018-04-01T05:53:31.319Z,37.17
2018-04-01T05:55:58.463Z,35.58
2018-04-01T05:58:25.778Z,37.17
2018-04-01T06:00:52.915Z,36.05
2018-04-01T06:03:20.037Z,36.78
2018-04-01T06:05:47.164Z,37.95
2018-04-01T06:08:14.267Z,36.25
2018-04-01T06:10:41.426Z,37.35
2018-04-01T06:13:08.560Z,35.13
2018-04-01T06:15:35.658Z,35.67
2018-04-01T06:18:02.776Z,37.58
2018-04-01T06:20:29.909Z,36.83
2018-04-01T06:22:57.029Z,38.38
2018-04-01T06:25:24.180Z,36.20
2018-04-01T06:27:51.383Z,35.85
2018-04-01T06:30:18.539Z,38.90
2018-04-01T06:32:45.668Z,38.70
2018-04-01T06:35:12.832Z,40.63
2018-04-01T06:37:39.962Z,40.25
2018-04-01T06:40:07.527Z,41.33
2018-04-01T06:42:34.642Z,37.38
2018-04-01T06:45:01.777Z,36.75
2018-04-01T06:47:28.897Z,38.85
2018-04-01T06:49:56.019Z,35.10
2018-04-01T06:52:23.144Z,38.47
2018-04-01T06:54:50.350Z,35.58
2018-04-01T06:57:17.521Z,34.92
2018-04-01T06:59:44.640Z,39.65
2018-04-01T07:02:11.740Z,36.55
2018-04-01T07:04:38.858Z,37.15
2018-04-01T07:07:05.987Z,36.15
2018-04-01T07:09:33.911Z,35.25
2018-04-01T07:12:01.059Z,31.12
2018-04-01T07:14:28.234Z,26.95
2018-04-01T07:16:55.334Z,25.33
2018-04-01T07:19:22.461Z,26.80
2018-04-01T07:21:49.581Z,26.37
2018-04-01T07:24:17.524Z,27.33
2018-04-01T07:26:44.631Z,26.15
2018-04-01T07:29:11.738Z,26.98
2018-04-01T07:31:39.622Z,27.37
2018-04-01T07:34:06.752Z,25.75
2018-04-01T07:36:33.846Z,24.63
2018-04-01T07:39:00.967Z,22.17
2018-04-01T07:41:28.831Z,26.85
2018-04-01T07:43:56.733Z,25.25
2018-04-01T07:46:23.945Z,28.70
2018-04-01T07:48:52.812Z,30.95
2018-04-01T07:51:19.951Z,30.42
2018-04-01T07:53:47.774Z,27.48
2018-04-01T07:56:14.946Z,28.62
2018-04-01T07:58:42.123Z,30.00
2018-04-01T08:01:09.262Z,31.75
2018-04-01T08:03:36.685Z,33.80
2018-04-01T08:06:04.602Z,30.20
2018-04-01T08:08:31.814Z,28.85
2018-04-01T08:10:59.814Z,28.40
2018-04-01T08:13:26.910Z,29.95
2018-04-01T08:15:54.092Z,33.40
2018-04-01T08:18:21.230Z,30.05
2018-04-01T08:20:48.356Z,30.50
2018-04-01T08:23:15.520Z,32.92
2018-04-01T08:25:42.652Z,30.65
2018-04-01T08:28:10.519Z,31.62
2018-04-01T08:30:38.419Z,31.50
2018-04-01T08:33:05.644Z,30.58
2018-04-01T08:35:32.812Z,30.45
2018-04-01T08:37:59.960Z,32.15
2018-04-01T08:40:27.142Z,31.90
2018-04-01T08:42:54.273Z,29.52
2018-04-01T08:45:21.441Z,32.00
2018-04-01T08:47:49.358Z,30.52
2018-04-01T08:50:18.089Z,28.40
2018-04-01T08:52:45.270Z,30.35
2018-04-01T08:55:12.428Z,28.38
2018-04-01T08:57:39.576Z,28.23
2018-04-01T09:00:06.868Z,29.48
2018-04-01T09:02:34.054Z,29.12
2018-04-01T09:05:01.297Z,28.50
2018-04-01T09:07:28.480Z,28.50
2018-04-01T09:09:55.826Z,29.60
2018-04-01T09:12:24.622Z,29.23
2018-04-01T09:14:51.791Z,27.17
2018-04-01T09:17:18.919Z,28.10
2018-04-01T09:19:46.143Z,27.95
2018-04-01T09:22:13.287Z,27.80
2018-04-01T09:24:40.481Z,25.25
2018-04-01T09:27:07.577Z,27.50
2018-04-01T09:29:34.776Z,28.55
2018-04-01T09:32:01.908Z,26.98
2018-04-01T09:34:29.096Z,30.20
2018-04-01T09:36:56.279Z,31.60
2018-04-01T09:39:24.047Z,34.00
2018-04-01T09:41:51.499Z,29.33
2018-04-01T09:44:18.686Z,25.55
2018-04-01T09:46:45.862Z,28.30
2018-04-01T09:49:12.985Z,33.40
2018-04-01T09:51:40.120Z,32.45
2018-04-01T09:54:07.281Z,30.45
2018-04-01T09:56:34.444Z,33.10
2018-04-01T09:59:01.573Z,32.65
2018-04-01T10:01:30.155Z,31.80
2018-04-01T10:03:57.885Z,33.50
2018-04-01T10:06:25.528Z,39.20
2018-04-01T10:08:53.293Z,35.30
2018-04-01T10:11:20.874Z,35.30
2018-04-01T10:13:48.544Z,34.35
2018-04-01T10:16:16.212Z,32.00
2018-04-01T10:18:43.980Z,37.50
2018-04-01T10:21:11.670Z,38.33
2018-04-01T10:23:39.293Z,39.63
2018-04-01T10:26:07.814Z,35.47
2018-04-01T10:28:35.969Z,36.42
2018-04-01T10:31:03.682Z,36.95
2018-04-01T10:33:31.318Z,35.80
2018-04-01T10:35:58.945Z,38.90
2018-04-01T10:38:26.519Z,38.03
2018-04-01T10:40:54.258Z,36.30
2018-04-01T10:43:22.672Z,40.55
2018-04-01T10:45:50.370Z,39.00
2018-04-01T10:48:18.024Z,44.88
2018-04-01T10:50:45.820Z,47.72
2018-04-01T10:53:14.229Z,50.53
2018-04-01T10:55:41.522Z,51.83
2018-04-01T10:58:08.647Z,49.08
2018-04-01T11:00:35.853Z,47.17
2018-04-01T11:03:02.992Z,49.60
2018-04-01T11:05:30.171Z,51.30
2018-04-01T11:07:58.195Z,50.05
2018-04-01T11:10:25.354Z,47.70
2018-04-01T11:12:52.668Z,44.95
2018-04-01T11:15:19.899Z,50.85
2018-04-01T11:17:48.463Z,47.33
2018-04-01T11:20:15.592Z,45.10
2018-04-01T11:22:42.789Z,46.45
2018-04-01T11:25:09.971Z,45.72
2018-04-01T11:27:37.118Z,46.00
2018-04-01T11:30:04.318Z,45.45
2018-04-01T11:32:31.478Z,38.65
2018-04-01T11:34:59.413Z,42.42
2018-04-01T11:37:26.555Z,42.90
2018-04-01T11:39:53.893Z,45.72
2018-04-01T11:42:20.983Z,45.00
2018-04-01T11:44:48.137Z,45.78
2018-04-01T11:47:15.281Z,40.58
2018-04-01T11:49:43.141Z,40.38
2018-04-01T11:52:10.382Z,38.95
2018-04-01T11:54:37.520Z,36.58
2018-04-01T11:57:04.770Z,40.00
2018-04-01T11:59:31.914Z,39.35
2018-04-01T12:01:59.098Z,37.70
2018-04-01T12:04:26.333Z,38.10
2018-04-01T12:06:53.443Z,39.00
2018-04-01T12:09:21.262Z,38.50
2018-04-01T12:11:48.390Z,36.20
2018-04-01T12:14:15.577Z,36.38
2018-04-01T12:16:42.655Z,35.05
2018-04-01T12:19:09.754Z,36.60
2018-04-01T12:21:37.066Z,33.83
2018-04-01T12:24:04.237Z,32.33
2018-04-01T12:26:31.452Z,37.33
2018-04-01T12:28:58.651Z,36.20
2018-04-01T12:31:25.877Z,35.00
2018-04-01T12:33:52.970Z,36.28
2018-04-01T12:36:20.141Z,31.85
2018-04-01T12:38:47.322Z,34.08
2018-04-01T12:41:15.212Z,27.87
2018-04-01T12:43:42.403Z,32.10
2018-04-01T12:46:09.538Z,34.58
2018-04-01T12:48:36.640Z,30.65
2018-04-01T12:51:03.820Z,31.73
2018-04-01T12:53:31.151Z,32.13
2018-04-01T12:55:58.384Z,30.73
2018-04-01T12:58:26.273Z,30.52
2018-04-01T13:00:53.411Z,31.45
2018-04-01T13:03:20.778Z,29.37
2018-04-01T13:05:48.058Z,29.33
2018-04-01T13:08:15.147Z,29.75
2018-04-01T13:10:43.094Z,29.48
2018-04-01T13:13:10.222Z,30.73
2018-04-01T13:15:37.444Z,33.33
2018-04-01T13:18:04.538Z,31.73
2018-04-01T13:20:31.797Z,28.55
2018-04-01T13:22:58.918Z,22.10
2018-04-01T13:25:26.188Z,24.30
2018-04-01T13:27:53.384Z,27.92
2018-04-01T13:30:21.290Z,29.60
2018-04-01T13:32:49.380Z,29.70
2018-04-01T13:35:16.541Z,25.73
2018-04-01T13:37:43.650Z,21.83
2018-04-01T13:40:10.880Z,24.10
2018-04-01T13:42:38.810Z,25.35
2018-04-01T13:45:05.935Z,24.23
2018-04-01T13:47:33.047Z,21.90
2018-04-01T13:50:00.192Z,26.92
2018-04-01T13:52:27.433Z,23.40
2018-04-01T13:54:55.349Z,23.27
2018-04-01T13:57:22.542Z,24.48
2018-04-01T13:59:49.917Z,20.55
2018-04-01T14:02:17.139Z,21.23
2018-04-01T14:04:44.304Z,21.05
2018-04-01T14:07:11.454Z,22.45
2018-04-01T14:09:38.792Z,22.60
2018-04-01T14:12:05.923Z,22.08
2018-04-01T14:14:33.042Z,21.67
2018-04-01T14:17:00.167Z,22.13
2018-04-01T14:19:27.344Z,21.55
2018-04-01T14:21:54.487Z,22.08
2018-04-01T14:24:21.669Z,19.08
2018-04-01T14:26:48.811Z,15.85
2018-04-01T14:29:16.790Z,20.50
2018-04-01T14:31:44.685Z,18.67
2018-04-01T14:34:11.843Z,23.10
2018-04-01T14:36:39.799Z,22.50
2018-04-01T14:39:06.976Z,19.52
2018-04-01T14:41:34.939Z,21.02
2018-04-01T14:44:02.183Z,20.05
2018-04-01T14:46:29.417Z,18.90
2018-04-01T14:48:56.550Z,19.12
2018-04-01T14:51:23.734Z,18.30
2018-04-01T14:53:50.870Z,16.98
2018-04-01T14:56:18.106Z,17.85
2018-04-01T14:58:45.242Z,18.00
2018-04-01T15:01:12.453Z,16.02
2018-04-01T15:03:39.596Z,16.95
2018-04-01T15:06:06.771Z,16.25
2018-04-01T15:08:33.893Z,15.38
2018-04-01T15:11:01.052Z,16.20
2018-04-01T15:13:28.608Z,15.75
2018-04-01T15:15:55.768Z,17.30
2018-04-01T15:18:23.655Z,17.80
2018-04-01T15:20:50.868Z,16.25
2018-04-01T15:23:17.981Z,14.93
2018-04-01T15:25:45.122Z,16.80
2018-04-01T15:28:12.244Z,15.80
2018-04-01T15:30:40.184Z,17.45
2018-04-01T15:33:07.395Z,14.27
2018-04-01T15:35:34.864Z,17.10
2018-04-01T15:38:02.897Z,20.98
2018-04-01T15:40:30.840Z,21.33
2018-04-01T15:42:58.061Z,19.87
2018-04-01T15:45:25.198Z,22.60
2018-04-01T15:47:52.315Z,19.77
2018-04-01T15:50:19.519Z,16.83
2018-04-01T15:52:46.847Z,20.15
2018-04-01T15:55:13.978Z,20.25
2018-04-01T15:57:41.296Z,19.50
2018-04-01T16:00:08.496Z,20.80
2018-04-01T16:02:35.748Z,19.73
2018-04-01T16:05:02.869Z,22.58
2018-04-01T16:07:30.757Z,22.95
2018-04-01T16:09:57.996Z,22.25
2018-04-01T16:12:25.871Z,20.55
2018-04-01T16:14:53.296Z,20.55
2018-04-01T16:17:21.229Z,21.83
2018-04-01T16:19:48.486Z,23.55
2018-04-01T16:22:15.635Z,21.20
2018-04-01T16:24:42.910Z,20.60
2018-04-01T16:27:10.053Z,28.95
2018-04-01T16:29:37.307Z,25.12
2018-04-01T16:32:04.424Z,34.17
2018-04-01T16:34:31.605Z,29.50
2018-04-01T16:36:58.832Z,26.70
2018-04-01T16:39:26.106Z,26.90
2018-04-01T16:41:53.325Z,17.02
2018-04-01T16:44:20.615Z,22.62
2018-04-01T16:46:47.781Z,19.08
2018-04-01T16:49:15.038Z,16.62
2018-04-01T16:51:42.159Z,18.12
2018-04-01T16:54:09.299Z,21.10
2018-04-01T16:56:36.579Z,27.55
2018-04-01T16:59:03.896Z,22.75
2018-04-01T17:01:31.022Z,15.40
2018-04-01T17:03:58.949Z,15.65
2018-04-01T17:06:26.153Z,14.23
2018-04-01T17:08:53.258Z,13.52
2018-04-01T17:11:20.396Z,18.70
2018-04-01T17:13:47.553Z,15.95
2018-04-01T17:16:15.021Z,15.90
2018-04-01T17:18:42.168Z,17.27
2018-04-01T17:21:09.367Z,23.15
2018-04-01T17:23:36.505Z,18.73
2018-04-01T17:26:03.747Z,21.48
2018-04-01T17:28:32.160Z,20.42
2018-04-01T17:30:59.331Z,21.23
2018-04-01T17:33:26.463Z,23.33
2018-04-01T17:35:53.599Z,18.10
2018-04-01T17:38:20.806Z,19.12
2018-04-01T17:40:47.963Z,17.95
2018-04-01T17:43:15.104Z,20.08
2018-04-01T17:45:42.256Z,17.80
2018-04-01T17:48:09.515Z,18.58
2018-04-01T17:50:36.710Z,17.10
2018-04-01T17:53:03.886Z,18.95
2018-04-01T17:55:31.086Z,17.62
2018-04-01T17:57:59.186Z,17.17
2018-04-01T18:00:26.434Z,29.65
2018-04-01T18:02:53.619Z,19.02
2018-04-01T18:05:20.777Z,22.00
2018-04-01T18:07:47.963Z,22.75
2018-04-01T18:10:15.915Z,23.45
2018-04-01T18:12:43.078Z,23.62
2018-04-01T18:15:10.218Z,61.35
2018-04-01T18:17:37.356Z,37.60
2018-04-01T18:20:04.935Z,30.50
2018-04-01T18:22:32.080Z,28.48
2018-04-01T18:24:59.243Z,28.05
2018-04-01T18:27:27.218Z,27.90
2018-04-01T18:29:55.188Z,30.02
2018-04-01T18:32:22.406Z,30.88
2018-04-01T18:34:49.676Z,35.40
2018-04-01T18:37:16.851Z,41.42
2018-04-01T18:39:44.083Z,47.55
2018-04-01T18:42:12.046Z,50.42
2018-04-01T18:44:39.156Z,46.55
2018-04-01T18:47:06.353Z,60.70
2018-04-01T18:49:34.290Z,55.12
2018-04-01T18:52:01.435Z,48.13
2018-04-01T18:54:28.764Z,49.88
2018-04-01T18:56:55.976Z,55.17
2018-04-01T18:59:23.947Z,59.58
2018-04-01T19:01:51.982Z,49.15
2018-04-01T19:04:19.107Z,45.78
2018-04-01T19:06:46.263Z,62.35
2018-04-01T19:09:13.533Z,54.30
2018-04-01T19:11:40.681Z,43.38
2018-04-01T19:14:07.909Z,46.05
2018-04-01T19:19:30.354Z,41.92
2018-04-01T19:21:58.010Z,42.22
2018-04-01T19:24:25.630Z,44.50
2018-04-01T19:26:53.494Z,44.80
2018-04-01T19:29:21.233Z,44.45
2018-04-01T19:31:48.801Z,45.35
2018-04-01T19:34:16.517Z,46.22
2018-04-01T19:36:44.944Z,49.80
2018-04-01T19:39:12.736Z,42.53
2018-04-01T19:41:40.352Z,39.47
2018-04-01T19:44:08.060Z,36.10
2018-04-01T19:46:35.697Z,37.05
2018-04-01T19:49:03.366Z,37.20
2018-04-01T19:51:31.008Z,42.70
2018-04-01T19:53:58.906Z,45.88
2018-04-01T19:56:27.325Z,51.22
2018-04-01T19:58:55.904Z,51.88
2018-04-01T20:01:24.336Z,55.83
2018-04-01T20:03:51.987Z,56.37
2018-04-01T20:06:19.711Z,60.65
2018-04-01T20:08:48.248Z,61.83
2018-04-01T20:11:16.802Z,60.40
2018-04-01T20:13:44.606Z,64.97
2018-04-01T20:16:12.330Z,62.72
2018-04-01T20:18:40.171Z,61.25
2018-04-01T20:21:07.963Z,62.78
2018-04-01T20:23:35.728Z,61.08
2018-04-01T20:26:03.549Z,58.92
2018-04-01T20:28:31.194Z,60.05
2018-04-01T20:30:58.836Z,57.83
2018-04-01T20:33:26.492Z,57.08
2018-04-01T20:35:54.146Z,53.47
2018-04-01T20:38:21.789Z,54.28
2018-04-01T20:40:49.518Z,54.90
2018-04-01T20:43:17.161Z,60.08
2018-04-01T20:45:44.896Z,56.22
2018-04-01T20:48:12.548Z,52.10
2018-04-01T20:50:40.237Z,54.30
2018-04-01T20:53:07.814Z,55.00
2018-04-01T20:55:35.469Z,55.75
2018-04-01T20:58:03.050Z,56.75
2018-04-01T21:00:30.845Z,56.40
2018-04-01T21:02:58.477Z,55.90
2018-04-01T21:05:26.158Z,62.38
2018-04-01T21:07:54.601Z,66.65
2018-04-01T21:10:22.261Z,67.30
2018-04-01T21:12:50.005Z,64.65
2018-04-01T21:15:17.632Z,60.53
2018-04-01T21:17:45.240Z,57.00
2018-04-01T21:20:12.921Z,54.30
2018-04-01T21:22:40.602Z,53.33
2018-04-01T21:25:09.329Z,52.92
2018-04-01T21:27:37.605Z,58.25
2018-04-01T21:30:05.325Z,56.40
2018-04-01T21:32:33.858Z,55.70
2018-04-01T21:35:01.639Z,58.72
2018-04-01T21:37:29.431Z,54.53
2018-04-01T21:39:58.496Z,59.10
2018-04-01T21:42:26.135Z,62.42
2018-04-01T21:44:53.774Z,58.28
2018-04-01T21:47:22.174Z,58.92
2018-04-01T21:49:49.966Z,59.53
2018-04-01T21:52:17.632Z,63.97
2018-04-01T21:54:45.305Z,61.55
2018-04-01T21:57:12.958Z,64.25
2018-04-01T21:59:40.578Z,63.53
2018-04-01T22:02:09.000Z,64.35
2018-04-01T22:04:36.587Z,64.05
2018-04-01T22:07:05.025Z,65.45
2018-04-01T22:09:32.794Z,66.20
2018-04-01T22:12:00.370Z,71.30
2018-04-01T22:14:28.017Z,67.62
2018-04-01T22:16:55.681Z,65.70
2018-04-01T22:19:23.320Z,65.18
2018-04-01T22:21:50.933Z,71.12
2018-04-01T22:24:18.625Z,71.40
2018-04-01T22:26:47.014Z,72.07
2018-04-01T22:29:15.464Z,71.70
2018-04-01T22:31:43.934Z,72.72
2018-04-01T22:34:11.536Z,77.50
2018-04-01T22:36:39.947Z,77.80
2018-04-01T22:39:07.607Z,72.70
2018-04-01T22:41:35.242Z,74.68
2018-04-01T22:44:03.595Z,74.28
2018-04-01T22:46:31.311Z,64.20
2018-04-01T22:48:58.943Z,62.55
2018-04-01T22:51:27.450Z,54.97
2018-04-01T22:53:55.018Z,55.53
2018-04-01T22:56:22.886Z,53.67
2018-04-01T22:58:50.608Z,54.17
2018-04-01T23:01:18.993Z,52.95
2018-04-01T23:03:46.621Z,53.08
2018-04-01T23:06:14.241Z,50.03
2018-04-01T23:08:41.831Z,51.83
2018-04-01T23:11:09.463Z,55.55
2018-04-01T23:13:37.192Z,60.15
2018-04-01T23:16:04.889Z,57.28
2018-04-01T23:18:32.559Z,62.45
2018-04-01T23:21:00.905Z,79.07
2018-04-01T23:23:28.567Z,88.87
2018-04-01T23:25:56.985Z,85.03
2018-04-01T23:28:24.660Z,83.60
2018-04-01T23:30:52.310Z,83.75
2018-04-01T23:33:19.934Z,88.82
2018-04-01T23:35:48.405Z,84.28
2018-04-01T23:38:16.762Z,91.35
2018-04-01T23:40:44.386Z,95.70
2018-04-01T23:43:12.086Z,96.65
2018-04-01T23:45:39.702Z,91.63
2018-04-01T23:48:07.291Z,85.30
2018-04-01T23:50:35.041Z,99.15
2018-04-01T23:53:02.622Z,93.10
2018-04-01T23:55:30.248Z,93.57
2018-04-01T23:57:57.857Z,95.10
